sensor_id;sensor_type;location;lat;lon;timestamp;temperature;humidity
43810;DHT22;29440;48.208;11.162;2022-09-03T00:00:15;14.90;99.90
43810;DHT22;29440;48.208;11.162;2022-09-03T00:02:49;14.90;99.90
43810;DHT22;29440;48.208;11.162;2022-09-03T00:05:24;14.90;99.90
43810;DHT22;29440;48.208;11.162;2022-09-03T00:11:01;14.90;99.90
43810;DHT22;29440;48.208;11.162;2022-09-03T00:16:34;14.90;99.90
43810;DHT22;29440;48.208;11.162;2022-09-03T00:19:04;14.90;99.90
43810;DHT22;29440;48.208;11.162;2022-09-03T00:24:00;14.90;99.90
43810;DHT22;29440;48.208;11.162;2022-09-03T00:26:30;14.90;99.90
43810;DHT22;29440;48.208;11.162;2022-09-03T00:29:02;14.90;99.90
43810;DHT22;29440;48.208;11.162;2022-09-03T00:31:42;14.80;99.90
43810;DHT22;29440;48.208;11.162;2022-09-03T00:34:20;14.80;99.90
43810;DHT22;29440;48.208;11.162;2022-09-03T00:36:48;14.80;99.90
43810;DHT22;29440;48.208;11.162;2022-09-03T00:39:19;14.70;99.90
43810;DHT22;29440;48.208;11.162;2022-09-03T00:50:43;14.60;99.90
43810;DHT22;29440;48.208;11.162;2022-09-03T00:56:36;14.50;99.90
43810;DHT22;29440;48.208;11.162;2022-09-03T01:04:51;14.40;99.90
43810;DHT22;29440;48.208;11.162;2022-09-03T01:09:52;14.40;99.90
43810;DHT22;29440;48.208;11.162;2022-09-03T01:20:46;14.30;99.90
43810;DHT22;29440;48.208;11.162;2022-09-03T01:31:54;14.20;99.90
43810;DHT22;29440;48.208;11.162;2022-09-03T01:34:38;14.10;99.90
43810;DHT22;29440;48.208;11.162;2022-09-03T01:37:42;14.00;99.90
43810;DHT22;29440;48.208;11.162;2022-09-03T01:40:23;13.90;99.90
43810;DHT22;29440;48.208;11.162;2022-09-03T01:45:57;13.80;99.90
43810;DHT22;29440;48.208;11.162;2022-09-03T01:48:48;13.70;99.90
43810;DHT22;29440;48.208;11.162;2022-09-03T01:51:23;13.70;99.90
43810;DHT22;29440;48.208;11.162;2022-09-03T01:59:32;13.60;99.90
43810;DHT22;29440;48.208;11.162;2022-09-03T02:02:35;13.70;99.90
43810;DHT22;29440;48.208;11.162;2022-09-03T02:05:05;13.70;99.90
43810;DHT22;29440;48.208;11.162;2022-09-03T02:10:09;13.50;99.90
43810;DHT22;29440;48.208;11.162;2022-09-03T02:12:37;13.50;99.90
43810;DHT22;29440;48.208;11.162;2022-09-03T02:15:07;13.40;99.90
43810;DHT22;29440;48.208;11.162;2022-09-03T02:17:35;13.40;99.90
43810;DHT22;29440;48.208;11.162;2022-09-03T02:20:07;13.30;99.90
43810;DHT22;29440;48.208;11.162;2022-09-03T02:22:37;13.30;99.90
43810;DHT22;29440;48.208;11.162;2022-09-03T02:25:04;13.30;99.90
43810;DHT22;29440;48.208;11.162;2022-09-03T02:27:30;13.30;99.90
43810;DHT22;29440;48.208;11.162;2022-09-03T02:29:56;13.20;99.90
43810;DHT22;29440;48.208;11.162;2022-09-03T02:32:22;13.30;99.90
43810;DHT22;29440;48.208;11.162;2022-09-03T02:34:48;13.20;99.90
43810;DHT22;29440;48.208;11.162;2022-09-03T02:37:16;13.20;99.90
43810;DHT22;29440;48.208;11.162;2022-09-03T02:39:42;13.20;99.90
43810;DHT22;29440;48.208;11.162;2022-09-03T02:42:10;13.20;99.90
43810;DHT22;29440;48.208;11.162;2022-09-03T02:44:43;13.20;99.90
43810;DHT22;29440;48.208;11.162;2022-09-03T02:47:11;13.20;99.90
43810;DHT22;29440;48.208;11.162;2022-09-03T02:49:36;13.10;99.90
43810;DHT22;29440;48.208;11.162;2022-09-03T02:52:08;13.10;99.90
43810;DHT22;29440;48.208;11.162;2022-09-03T02:54:35;13.10;99.90
43810;DHT22;29440;48.208;11.162;2022-09-03T02:57:05;13.10;99.90
43810;DHT22;29440;48.208;11.162;2022-09-03T02:59:31;13.00;99.90
43810;DHT22;29440;48.208;11.162;2022-09-03T03:01:57;13.00;99.90
43810;DHT22;29440;48.208;11.162;2022-09-03T03:04:23;13.00;99.90
43810;DHT22;29440;48.208;11.162;2022-09-03T03:06:48;12.90;99.90
43810;DHT22;29440;48.208;11.162;2022-09-03T03:09:17;13.00;99.90
43810;DHT22;29440;48.208;11.162;2022-09-03T03:11:42;12.90;99.90
43810;DHT22;29440;48.208;11.162;2022-09-03T03:14:08;12.90;99.90
43810;DHT22;29440;48.208;11.162;2022-09-03T03:16:34;12.90;99.90
43810;DHT22;29440;48.208;11.162;2022-09-03T03:19:00;13.00;99.90
43810;DHT22;29440;48.208;11.162;2022-09-03T03:21:26;12.90;99.90
43810;DHT22;29440;48.208;11.162;2022-09-03T03:23:51;12.90;99.90
43810;DHT22;29440;48.208;11.162;2022-09-03T03:26:18;12.90;99.90
43810;DHT22;29440;48.208;11.162;2022-09-03T03:28:46;12.90;99.90
43810;DHT22;29440;48.208;11.162;2022-09-03T03:31:16;12.90;99.90
43810;DHT22;29440;48.208;11.162;2022-09-03T03:33:42;12.90;99.90
43810;DHT22;29440;48.208;11.162;2022-09-03T03:36:13;12.90;99.90
43810;DHT22;29440;48.208;11.162;2022-09-03T03:38:40;12.80;99.90
43810;DHT22;29440;48.208;11.162;2022-09-03T03:41:14;12.80;99.90
43810;DHT22;29440;48.208;11.162;2022-09-03T03:43:41;12.80;99.90
43810;DHT22;29440;48.208;11.162;2022-09-03T03:46:07;12.80;99.90
43810;DHT22;29440;48.208;11.162;2022-09-03T03:48:32;12.70;99.90
43810;DHT22;29440;48.208;11.162;2022-09-03T03:51:03;12.70;99.90
43810;DHT22;29440;48.208;11.162;2022-09-03T03:53:31;12.70;99.90
43810;DHT22;29440;48.208;11.162;2022-09-03T03:55:58;12.70;99.90
43810;DHT22;29440;48.208;11.162;2022-09-03T03:58:24;12.70;99.90
43810;DHT22;29440;48.208;11.162;2022-09-03T04:00:51;12.60;99.90
43810;DHT22;29440;48.208;11.162;2022-09-03T04:03:17;12.70;99.90
43810;DHT22;29440;48.208;11.162;2022-09-03T04:05:43;12.80;99.90
43810;DHT22;29440;48.208;11.162;2022-09-03T04:08:08;12.80;99.90
43810;DHT22;29440;48.208;11.162;2022-09-03T04:10:35;12.80;99.90
43810;DHT22;29440;48.208;11.162;2022-09-03T04:13:01;12.80;99.90
43810;DHT22;29440;48.208;11.162;2022-09-03T04:15:26;12.80;99.90
43810;DHT22;29440;48.208;11.162;2022-09-03T04:17:55;12.70;99.90
43810;DHT22;29440;48.208;11.162;2022-09-03T04:20:21;12.80;99.90
43810;DHT22;29440;48.208;11.162;2022-09-03T04:22:46;12.80;99.90
43810;DHT22;29440;48.208;11.162;2022-09-03T04:25:12;12.80;99.90
43810;DHT22;29440;48.208;11.162;2022-09-03T04:27:37;12.90;99.90
43810;DHT22;29440;48.208;11.162;2022-09-03T04:30:03;12.80;99.90
43810;DHT22;29440;48.208;11.162;2022-09-03T04:32:29;12.80;99.90
43810;DHT22;29440;48.208;11.162;2022-09-03T04:35:13;12.80;99.90
43810;DHT22;29440;48.208;11.162;2022-09-03T04:37:39;12.90;99.90
43810;DHT22;29440;48.208;11.162;2022-09-03T04:40:04;12.90;99.90
43810;DHT22;29440;48.208;11.162;2022-09-03T04:42:30;12.90;99.90
43810;DHT22;29440;48.208;11.162;2022-09-03T04:44:56;12.90;99.90
43810;DHT22;29440;48.208;11.162;2022-09-03T04:47:21;13.00;99.90
43810;DHT22;29440;48.208;11.162;2022-09-03T04:49:47;13.00;99.90
43810;DHT22;29440;48.208;11.162;2022-09-03T04:52:12;13.00;99.90
43810;DHT22;29440;48.208;11.162;2022-09-03T04:54:38;13.00;99.90
43810;DHT22;29440;48.208;11.162;2022-09-03T04:57:03;13.00;99.90
43810;DHT22;29440;48.208;11.162;2022-09-03T04:59:29;13.00;99.90
43810;DHT22;29440;48.208;11.162;2022-09-03T05:01:54;13.10;99.90
43810;DHT22;29440;48.208;11.162;2022-09-03T05:04:21;13.10;99.90
43810;DHT22;29440;48.208;11.162;2022-09-03T05:06:46;13.10;99.90
43810;DHT22;29440;48.208;11.162;2022-09-03T05:09:12;13.10;99.90
43810;DHT22;29440;48.208;11.162;2022-09-03T05:11:37;13.20;99.90
43810;DHT22;29440;48.208;11.162;2022-09-03T05:14:03;13.30;99.90
43810;DHT22;29440;48.208;11.162;2022-09-03T05:16:30;13.20;99.90
43810;DHT22;29440;48.208;11.162;2022-09-03T05:18:57;13.20;99.90
43810;DHT22;29440;48.208;11.162;2022-09-03T05:21:24;13.30;99.90
43810;DHT22;29440;48.208;11.162;2022-09-03T05:23:51;13.30;99.90
43810;DHT22;29440;48.208;11.162;2022-09-03T05:26:28;13.40;99.90
43810;DHT22;29440;48.208;11.162;2022-09-03T05:29:01;13.40;99.90
43810;DHT22;29440;48.208;11.162;2022-09-03T05:31:30;13.50;99.90
43810;DHT22;29440;48.208;11.162;2022-09-03T05:33:58;13.60;99.90
43810;DHT22;29440;48.208;11.162;2022-09-03T05:36:27;13.60;99.90
43810;DHT22;29440;48.208;11.162;2022-09-03T05:38:53;13.60;99.90
43810;DHT22;29440;48.208;11.162;2022-09-03T05:41:19;13.60;99.90
43810;DHT22;29440;48.208;11.162;2022-09-03T05:43:47;13.60;99.90
43810;DHT22;29440;48.208;11.162;2022-09-03T05:46:20;13.60;99.90
43810;DHT22;29440;48.208;11.162;2022-09-03T05:48:45;13.60;99.90
43810;DHT22;29440;48.208;11.162;2022-09-03T05:51:15;13.60;99.90
43810;DHT22;29440;48.208;11.162;2022-09-03T05:53:43;13.60;99.90
43810;DHT22;29440;48.208;11.162;2022-09-03T05:56:11;13.60;99.90
43810;DHT22;29440;48.208;11.162;2022-09-03T05:58:41;13.70;99.90
43810;DHT22;29440;48.208;11.162;2022-09-03T06:01:13;13.60;99.90
43810;DHT22;29440;48.208;11.162;2022-09-03T06:03:40;13.60;99.90
43810;DHT22;29440;48.208;11.162;2022-09-03T06:06:07;13.70;99.90
43810;DHT22;29440;48.208;11.162;2022-09-03T06:08:33;13.70;99.90
43810;DHT22;29440;48.208;11.162;2022-09-03T06:11:00;13.90;99.90
43810;DHT22;29440;48.208;11.162;2022-09-03T06:13:29;13.80;99.90
43810;DHT22;29440;48.208;11.162;2022-09-03T06:15:59;13.90;99.90
43810;DHT22;29440;48.208;11.162;2022-09-03T06:18:26;14.00;99.90
43810;DHT22;29440;48.208;11.162;2022-09-03T06:21:01;14.00;99.90
43810;DHT22;29440;48.208;11.162;2022-09-03T06:23:28;14.00;99.90
43810;DHT22;29440;48.208;11.162;2022-09-03T06:26:06;14.10;99.90
43810;DHT22;29440;48.208;11.162;2022-09-03T06:28:37;14.20;99.90
43810;DHT22;29440;48.208;11.162;2022-09-03T06:31:04;14.20;99.90
43810;DHT22;29440;48.208;11.162;2022-09-03T06:33:32;14.20;99.90
43810;DHT22;29440;48.208;11.162;2022-09-03T06:35:59;14.30;99.90
43810;DHT22;29440;48.208;11.162;2022-09-03T06:38:27;14.30;99.90
43810;DHT22;29440;48.208;11.162;2022-09-03T06:40:58;14.30;99.90
43810;DHT22;29440;48.208;11.162;2022-09-03T06:43:27;14.50;99.90
43810;DHT22;29440;48.208;11.162;2022-09-03T06:46:00;14.50;99.90
43810;DHT22;29440;48.208;11.162;2022-09-03T06:48:28;14.50;99.90
43810;DHT22;29440;48.208;11.162;2022-09-03T06:53:25;14.60;99.90
43810;DHT22;29440;48.208;11.162;2022-09-03T06:55:59;14.60;99.90
43810;DHT22;29440;48.208;11.162;2022-09-03T06:58:32;14.60;99.90
43810;DHT22;29440;48.208;11.162;2022-09-03T07:01:05;14.60;99.90
43810;DHT22;29440;48.208;11.162;2022-09-03T07:03:32;14.60;99.90
43810;DHT22;29440;48.208;11.162;2022-09-03T07:06:02;14.70;99.90
43810;DHT22;29440;48.208;11.162;2022-09-03T07:08:29;14.70;99.90
43810;DHT22;29440;48.208;11.162;2022-09-03T07:10:59;14.70;99.90
43810;DHT22;29440;48.208;11.162;2022-09-03T07:13:43;14.70;99.90
43810;DHT22;29440;48.208;11.162;2022-09-03T07:16:12;14.80;99.90
43810;DHT22;29440;48.208;11.162;2022-09-03T07:18:39;14.90;99.90
43810;DHT22;29440;48.208;11.162;2022-09-03T07:21:09;14.90;99.90
43810;DHT22;29440;48.208;11.162;2022-09-03T07:23:36;15.00;99.90
43810;DHT22;29440;48.208;11.162;2022-09-03T07:26:05;15.10;99.90
43810;DHT22;29440;48.208;11.162;2022-09-03T07:28:31;15.30;99.90
43810;DHT22;29440;48.208;11.162;2022-09-03T07:31:05;15.40;99.90
43810;DHT22;29440;48.208;11.162;2022-09-03T07:33:31;15.60;99.90
43810;DHT22;29440;48.208;11.162;2022-09-03T07:36:06;15.60;99.90
43810;DHT22;29440;48.208;11.162;2022-09-03T07:38:33;16.00;99.90
43810;DHT22;29440;48.208;11.162;2022-09-03T07:41:00;16.20;99.90
43810;DHT22;29440;48.208;11.162;2022-09-03T07:43:27;16.40;99.90
43810;DHT22;29440;48.208;11.162;2022-09-03T07:45:53;16.60;99.90
43810;DHT22;29440;48.208;11.162;2022-09-03T07:48:21;16.80;99.90
43810;DHT22;29440;48.208;11.162;2022-09-03T07:50:47;16.90;99.90
43810;DHT22;29440;48.208;11.162;2022-09-03T07:53:14;17.10;99.90
43810;DHT22;29440;48.208;11.162;2022-09-03T07:55:41;17.50;99.90
43810;DHT22;29440;48.208;11.162;2022-09-03T07:58:08;17.90;99.90
43810;DHT22;29440;48.208;11.162;2022-09-03T08:00:36;18.50;99.90
43810;DHT22;29440;48.208;11.162;2022-09-03T08:03:01;18.90;99.90
43810;DHT22;29440;48.208;11.162;2022-09-03T08:05:32;19.00;99.90
43810;DHT22;29440;48.208;11.162;2022-09-03T08:07:59;19.10;99.90
43810;DHT22;29440;48.208;11.162;2022-09-03T08:10:26;19.20;99.90
43810;DHT22;29440;48.208;11.162;2022-09-03T08:12:55;19.20;99.90
43810;DHT22;29440;48.208;11.162;2022-09-03T08:15:20;19.30;99.90
43810;DHT22;29440;48.208;11.162;2022-09-03T08:17:46;19.60;99.90
43810;DHT22;29440;48.208;11.162;2022-09-03T08:20:11;19.90;99.90
43810;DHT22;29440;48.208;11.162;2022-09-03T08:22:37;20.20;99.90
43810;DHT22;29440;48.208;11.162;2022-09-03T08:25:03;20.50;99.90
43810;DHT22;29440;48.208;11.162;2022-09-03T08:27:30;21.00;99.90
43810;DHT22;29440;48.208;11.162;2022-09-03T08:29:56;21.40;99.90
43810;DHT22;29440;48.208;11.162;2022-09-03T08:32:21;21.60;99.90
43810;DHT22;29440;48.208;11.162;2022-09-03T08:34:47;21.60;99.90
43810;DHT22;29440;48.208;11.162;2022-09-03T08:37:13;21.50;99.90
43810;DHT22;29440;48.208;11.162;2022-09-03T08:39:38;21.40;99.90
43810;DHT22;29440;48.208;11.162;2022-09-03T08:42:18;21.10;99.90
43810;DHT22;29440;48.208;11.162;2022-09-03T08:44:57;21.00;99.90
43810;DHT22;29440;48.208;11.162;2022-09-03T08:57:52;20.60;99.90
43810;DHT22;29440;48.208;11.162;2022-09-03T09:00:21;20.60;99.90
43810;DHT22;29440;48.208;11.162;2022-09-03T09:05:50;20.80;99.90
43810;DHT22;29440;48.208;11.162;2022-09-03T09:08:33;20.90;99.90
43810;DHT22;29440;48.208;11.162;2022-09-03T09:14:03;21.00;99.90
43810;DHT22;29440;48.208;11.162;2022-09-03T09:16:49;21.10;99.90
43810;DHT22;29440;48.208;11.162;2022-09-03T09:22:26;21.50;99.90
43810;DHT22;29440;48.208;11.162;2022-09-03T09:24:53;21.70;99.90
43810;DHT22;29440;48.208;11.162;2022-09-03T09:27:21;21.90;99.90
43810;DHT22;29440;48.208;11.162;2022-09-03T09:29:49;22.20;99.90
43810;DHT22;29440;48.208;11.162;2022-09-03T09:32:17;22.50;99.90
43810;DHT22;29440;48.208;11.162;2022-09-03T09:34:44;22.70;99.90
43810;DHT22;29440;48.208;11.162;2022-09-03T09:37:12;22.90;99.90
43810;DHT22;29440;48.208;11.162;2022-09-03T09:39:39;23.10;99.90
43810;DHT22;29440;48.208;11.162;2022-09-03T09:42:08;23.30;99.90
43810;DHT22;29440;48.208;11.162;2022-09-03T09:44:37;23.50;99.90
43810;DHT22;29440;48.208;11.162;2022-09-03T09:47:11;23.70;99.90
43810;DHT22;29440;48.208;11.162;2022-09-03T09:52:18;23.80;99.90
43810;DHT22;29440;48.208;11.162;2022-09-03T09:54:46;23.90;99.90
43810;DHT22;29440;48.208;11.162;2022-09-03T09:57:23;23.90;99.90
43810;DHT22;29440;48.208;11.162;2022-09-03T09:59:49;23.90;99.90
43810;DHT22;29440;48.208;11.162;2022-09-03T10:02:26;23.90;99.90
43810;DHT22;29440;48.208;11.162;2022-09-03T10:05:12;24.00;99.90
43810;DHT22;29440;48.208;11.162;2022-09-03T10:07:38;23.90;99.90
43810;DHT22;29440;48.208;11.162;2022-09-03T10:10:22;23.90;99.90
43810;DHT22;29440;48.208;11.162;2022-09-03T10:12:58;23.90;99.90
43810;DHT22;29440;48.208;11.162;2022-09-03T10:21:12;23.70;99.90
43810;DHT22;29440;48.208;11.162;2022-09-03T10:26:27;23.60;99.90
43810;DHT22;29440;48.208;11.162;2022-09-03T10:28:59;23.60;99.90
43810;DHT22;29440;48.208;11.162;2022-09-03T10:40:05;23.50;99.90
43810;DHT22;29440;48.208;11.162;2022-09-03T10:45:41;23.30;99.90
43810;DHT22;29440;48.208;11.162;2022-09-03T10:51:22;23.10;99.90
43810;DHT22;29440;48.208;11.162;2022-09-03T11:01:29;23.30;99.90
43810;DHT22;29440;48.208;11.162;2022-09-03T11:07:04;23.70;99.90
43810;DHT22;29440;48.208;11.162;2022-09-03T11:09:38;23.80;98.90
43810;DHT22;29440;48.208;11.162;2022-09-03T11:14:44;24.00;99.90
43810;DHT22;29440;48.208;11.162;2022-09-03T11:17:27;24.10;99.40
43810;DHT22;29440;48.208;11.162;2022-09-03T11:20:09;24.20;99.60
43810;DHT22;29440;48.208;11.162;2022-09-03T11:22:37;24.10;99.80
43810;DHT22;29440;48.208;11.162;2022-09-03T11:25:04;24.20;99.00
43810;DHT22;29440;48.208;11.162;2022-09-03T11:27:55;24.20;99.10
43810;DHT22;29440;48.208;11.162;2022-09-03T11:30:36;24.40;99.40
43810;DHT22;29440;48.208;11.162;2022-09-03T11:33:09;24.50;99.50
43810;DHT22;29440;48.208;11.162;2022-09-03T11:38:04;24.50;97.20
43810;DHT22;29440;48.208;11.162;2022-09-03T11:43:07;24.70;98.00
43810;DHT22;29440;48.208;11.162;2022-09-03T11:45:36;25.00;98.20
43810;DHT22;29440;48.208;11.162;2022-09-03T11:48:17;24.90;98.30
43810;DHT22;29440;48.208;11.162;2022-09-03T11:50:51;25.10;96.80
43810;DHT22;29440;48.208;11.162;2022-09-03T11:55:59;25.30;96.40
43810;DHT22;29440;48.208;11.162;2022-09-03T11:58:36;25.30;97.70
43810;DHT22;29440;48.208;11.162;2022-09-03T12:01:08;25.50;96.10
43810;DHT22;29440;48.208;11.162;2022-09-03T12:17:10;26.00;95.40
43810;DHT22;29440;48.208;11.162;2022-09-03T12:19:44;26.10;94.80
43810;DHT22;29440;48.208;11.162;2022-09-03T12:22:15;25.90;93.20
43810;DHT22;29440;48.208;11.162;2022-09-03T12:24:45;26.00;94.20
43810;DHT22;29440;48.208;11.162;2022-09-03T12:27:18;26.10;94.60
43810;DHT22;29440;48.208;11.162;2022-09-03T12:29:58;26.00;93.40
43810;DHT22;29440;48.208;11.162;2022-09-03T12:32:28;26.00;94.50
43810;DHT22;29440;48.208;11.162;2022-09-03T12:34:57;26.10;93.80
43810;DHT22;29440;48.208;11.162;2022-09-03T12:37:25;26.20;94.50
43810;DHT22;29440;48.208;11.162;2022-09-03T12:39:56;26.20;95.40
43810;DHT22;29440;48.208;11.162;2022-09-03T12:42:27;26.30;95.10
43810;DHT22;29440;48.208;11.162;2022-09-03T12:44:54;26.40;92.90
43810;DHT22;29440;48.208;11.162;2022-09-03T12:47:22;26.40;93.80
43810;DHT22;29440;48.208;11.162;2022-09-03T12:49:50;26.40;93.80
43810;DHT22;29440;48.208;11.162;2022-09-03T12:52:24;26.50;92.70
43810;DHT22;29440;48.208;11.162;2022-09-03T13:00:08;26.40;90.70
43810;DHT22;29440;48.208;11.162;2022-09-03T13:02:41;26.40;91.10
43810;DHT22;29440;48.208;11.162;2022-09-03T13:05:12;26.60;91.40
43810;DHT22;29440;48.208;11.162;2022-09-03T13:07:39;26.60;92.60
43810;DHT22;29440;48.208;11.162;2022-09-03T13:10:25;26.60;91.60
43810;DHT22;29440;48.208;11.162;2022-09-03T13:12:58;26.50;91.60
43810;DHT22;29440;48.208;11.162;2022-09-03T13:15:24;26.40;92.70
43810;DHT22;29440;48.208;11.162;2022-09-03T13:18:23;26.20;92.30
43810;DHT22;29440;48.208;11.162;2022-09-03T13:21:13;26.00;92.20
43810;DHT22;29440;48.208;11.162;2022-09-03T13:24:12;26.00;93.00
43810;DHT22;29440;48.208;11.162;2022-09-03T13:27:02;25.80;92.80
43810;DHT22;29440;48.208;11.162;2022-09-03T13:35:16;25.40;93.40
43810;DHT22;29440;48.208;11.162;2022-09-03T13:37:55;25.20;93.50
43810;DHT22;29440;48.208;11.162;2022-09-03T13:40:26;25.10;93.50
43810;DHT22;29440;48.208;11.162;2022-09-03T13:43:26;24.90;93.60
43810;DHT22;29440;48.208;11.162;2022-09-03T13:45:58;24.70;94.00
43810;DHT22;29440;48.208;11.162;2022-09-03T13:48:39;24.40;95.50
43810;DHT22;29440;48.208;11.162;2022-09-03T13:51:27;24.00;96.60
43810;DHT22;29440;48.208;11.162;2022-09-03T13:56:56;23.10;98.30
43810;DHT22;29440;48.208;11.162;2022-09-03T13:59:44;22.70;99.10
43810;DHT22;29440;48.208;11.162;2022-09-03T14:18:01;21.00;99.90
43810;DHT22;29440;48.208;11.162;2022-09-03T14:22:42;20.60;99.90
43810;DHT22;29440;48.208;11.162;2022-09-03T14:27:41;20.30;99.90
43810;DHT22;29440;48.208;11.162;2022-09-03T14:36:21;20.00;99.90
43810;DHT22;29440;48.208;11.162;2022-09-03T14:39:09;19.90;99.90
43810;DHT22;29440;48.208;11.162;2022-09-03T14:41:42;19.80;99.90
43810;DHT22;29440;48.208;11.162;2022-09-03T14:44:21;19.80;99.90
43810;DHT22;29440;48.208;11.162;2022-09-03T14:47:02;19.70;99.90
43810;DHT22;29440;48.208;11.162;2022-09-03T14:50:02;19.70;99.90
43810;DHT22;29440;48.208;11.162;2022-09-03T15:01:11;19.50;99.90
43810;DHT22;29440;48.208;11.162;2022-09-03T15:06:39;19.40;99.90
43810;DHT22;29440;48.208;11.162;2022-09-03T15:17:21;19.20;99.90
43810;DHT22;29440;48.208;11.162;2022-09-03T15:20:07;19.10;99.90
43810;DHT22;29440;48.208;11.162;2022-09-03T15:22:56;19.10;99.90
43810;DHT22;29440;48.208;11.162;2022-09-03T15:25:38;19.10;99.90
43810;DHT22;29440;48.208;11.162;2022-09-03T15:31:12;19.00;99.90
43810;DHT22;29440;48.208;11.162;2022-09-03T15:34:00;19.00;99.90
43810;DHT22;29440;48.208;11.162;2022-09-03T15:36:39;19.00;99.90
43810;DHT22;29440;48.208;11.162;2022-09-03T15:39:13;18.90;99.90
43810;DHT22;29440;48.208;11.162;2022-09-03T15:42:17;18.90;99.90
43810;DHT22;29440;48.208;11.162;2022-09-03T15:44:51;18.80;99.90
43810;DHT22;29440;48.208;11.162;2022-09-03T15:47:45;18.80;99.90
43810;DHT22;29440;48.208;11.162;2022-09-03T15:50:23;18.80;99.90
43810;DHT22;29440;48.208;11.162;2022-09-03T15:53:26;18.80;99.90
43810;DHT22;29440;48.208;11.162;2022-09-03T15:56:27;18.90;99.90
43810;DHT22;29440;48.208;11.162;2022-09-03T15:59:15;19.00;99.90
43810;DHT22;29440;48.208;11.162;2022-09-03T16:15:21;19.50;99.90
43810;DHT22;29440;48.208;11.162;2022-09-03T16:20:55;19.40;99.90
43810;DHT22;29440;48.208;11.162;2022-09-03T16:23:57;19.30;99.90
43810;DHT22;29440;48.208;11.162;2022-09-03T16:26:50;19.20;99.90
43810;DHT22;29440;48.208;11.162;2022-09-03T16:29:25;19.10;99.90
43810;DHT22;29440;48.208;11.162;2022-09-03T16:46:03;19.00;99.90
43810;DHT22;29440;48.208;11.162;2022-09-03T16:48:37;19.10;99.90
43810;DHT22;29440;48.208;11.162;2022-09-03T17:02:36;19.30;99.90
43810;DHT22;29440;48.208;11.162;2022-09-03T17:05:11;19.30;99.90
43810;DHT22;29440;48.208;11.162;2022-09-03T17:10:25;19.20;99.90
43810;DHT22;29440;48.208;11.162;2022-09-03T17:24:42;18.90;99.90
43810;DHT22;29440;48.208;11.162;2022-09-03T17:27:16;18.90;99.90
43810;DHT22;29440;48.208;11.162;2022-09-03T17:32:53;18.70;99.90
43810;DHT22;29440;48.208;11.162;2022-09-03T17:35:47;18.60;99.90
43810;DHT22;29440;48.208;11.162;2022-09-03T17:41:28;18.50;99.90
43810;DHT22;29440;48.208;11.162;2022-09-03T17:46:51;18.30;99.90
43810;DHT22;29440;48.208;11.162;2022-09-03T17:49:50;18.20;99.90
43810;DHT22;29440;48.208;11.162;2022-09-03T17:52:27;18.20;99.90
43810;DHT22;29440;48.208;11.162;2022-09-03T17:54:59;18.10;99.90
43810;DHT22;29440;48.208;11.162;2022-09-03T17:57:37;18.10;99.90
43810;DHT22;29440;48.208;11.162;2022-09-03T18:00:05;18.10;99.90
43810;DHT22;29440;48.208;11.162;2022-09-03T18:05:26;17.90;99.90
43810;DHT22;29440;48.208;11.162;2022-09-03T18:19:48;17.50;99.90
43810;DHT22;29440;48.208;11.162;2022-09-03T18:22:39;17.40;99.90
43810;DHT22;29440;48.208;11.162;2022-09-03T18:25:27;17.30;99.90
43810;DHT22;29440;48.208;11.162;2022-09-03T18:28:14;17.30;99.90
43810;DHT22;29440;48.208;11.162;2022-09-03T18:31:14;17.30;99.90
43810;DHT22;29440;48.208;11.162;2022-09-03T18:33:59;17.20;99.90
43810;DHT22;29440;48.208;11.162;2022-09-03T18:36:43;17.10;99.90
43810;DHT22;29440;48.208;11.162;2022-09-03T18:39:28;17.10;99.90
43810;DHT22;29440;48.208;11.162;2022-09-03T18:45:27;17.00;99.90
43810;DHT22;29440;48.208;11.162;2022-09-03T19:00:38;16.70;99.90
43810;DHT22;29440;48.208;11.162;2022-09-03T19:07:01;16.60;99.90
43810;DHT22;29440;48.208;11.162;2022-09-03T19:09:55;16.60;99.90
43810;DHT22;29440;48.208;11.162;2022-09-03T19:13:13;16.60;99.90
43810;DHT22;29440;48.208;11.162;2022-09-03T19:22:45;16.60;99.90
43810;DHT22;29440;48.208;11.162;2022-09-03T19:25:30;16.50;99.90
43810;DHT22;29440;48.208;11.162;2022-09-03T19:28:21;16.50;99.90
43810;DHT22;29440;48.208;11.162;2022-09-03T19:37:35;16.40;99.90
43810;DHT22;29440;48.208;11.162;2022-09-03T19:40:32;16.30;99.90
43810;DHT22;29440;48.208;11.162;2022-09-03T19:46:50;16.20;99.90
43810;DHT22;29440;48.208;11.162;2022-09-03T19:56:40;16.10;99.90
43810;DHT22;29440;48.208;11.162;2022-09-03T19:59:28;16.10;99.90
43810;DHT22;29440;48.208;11.162;2022-09-03T20:02:15;16.00;99.90
43810;DHT22;29440;48.208;11.162;2022-09-03T20:05:02;15.90;99.90
43810;DHT22;29440;48.208;11.162;2022-09-03T20:07:51;15.90;99.90
43810;DHT22;29440;48.208;11.162;2022-09-03T20:10:37;15.80;99.90
43810;DHT22;29440;48.208;11.162;2022-09-03T20:13:15;15.80;99.90
43810;DHT22;29440;48.208;11.162;2022-09-03T20:18:30;15.80;99.90
43810;DHT22;29440;48.208;11.162;2022-09-03T20:24:18;15.70;99.90
43810;DHT22;29440;48.208;11.162;2022-09-03T20:27:14;15.70;99.90
43810;DHT22;29440;48.208;11.162;2022-09-03T20:29:51;15.70;99.90
43810;DHT22;29440;48.208;11.162;2022-09-03T20:32:34;15.60;99.90
43810;DHT22;29440;48.208;11.162;2022-09-03T20:37:59;15.60;99.90
43810;DHT22;29440;48.208;11.162;2022-09-03T20:40:45;15.60;99.90
43810;DHT22;29440;48.208;11.162;2022-09-03T20:51:38;15.50;99.90
43810;DHT22;29440;48.208;11.162;2022-09-03T20:54:13;15.40;99.90
43810;DHT22;29440;48.208;11.162;2022-09-03T21:05:50;15.30;99.90
43810;DHT22;29440;48.208;11.162;2022-09-03T21:08:38;15.30;99.90
43810;DHT22;29440;48.208;11.162;2022-09-03T21:11:14;15.20;99.90
43810;DHT22;29440;48.208;11.162;2022-09-03T21:14:11;15.20;99.90
43810;DHT22;29440;48.208;11.162;2022-09-03T21:19:33;15.20;99.90
43810;DHT22;29440;48.208;11.162;2022-09-03T21:25:03;15.10;99.90
43810;DHT22;29440;48.208;11.162;2022-09-03T21:27:42;15.10;99.90
43810;DHT22;29440;48.208;11.162;2022-09-03T21:30:15;15.00;99.90
43810;DHT22;29440;48.208;11.162;2022-09-03T21:32:49;15.00;99.90
43810;DHT22;29440;48.208;11.162;2022-09-03T21:35:44;15.00;99.90
43810;DHT22;29440;48.208;11.162;2022-09-03T21:38:30;14.90;99.90
43810;DHT22;29440;48.208;11.162;2022-09-03T21:41:25;14.90;99.90
43810;DHT22;29440;48.208;11.162;2022-09-03T21:44:07;14.80;99.90
43810;DHT22;29440;48.208;11.162;2022-09-03T21:46:54;14.80;99.90
43810;DHT22;29440;48.208;11.162;2022-09-03T21:49:57;14.80;99.90
43810;DHT22;29440;48.208;11.162;2022-09-03T21:52:53;14.80;99.90